sensor_id;sensor_type;location;lat;lon;timestamp;temperature;humidity
12303;DHT22;6214;48.012;7.862;2024-01-15T00:02:20;-1.10;99.90
12303;DHT22;6214;48.012;7.862;2024-01-15T00:04:47;-1.10;99.90
12303;DHT22;6214;48.012;7.862;2024-01-15T00:07:14;-1.10;99.90
12303;DHT22;6214;48.012;7.862;2024-01-15T00:09:41;-1.00;99.90
12303;DHT22;6214;48.012;7.862;2024-01-15T00:12:08;-1.10;99.90
12303;DHT22;6214;48.012;7.862;2024-01-15T00:14:34;-1.10;99.90
12303;DHT22;6214;48.012;7.862;2024-01-15T00:17:01;-1.20;99.90
12303;DHT22;6214;48.012;7.862;2024-01-15T00:19:28;-1.10;99.90
12303;DHT22;6214;48.012;7.862;2024-01-15T00:21:58;-1.20;99.90
12303;DHT22;6214;48.012;7.862;2024-01-15T00:24:25;-1.20;99.90
12303;DHT22;6214;48.012;7.862;2024-01-15T00:26:52;-1.10;99.90
12303;DHT22;6214;48.012;7.862;2024-01-15T00:29:20;-1.30;99.90
12303;DHT22;6214;48.012;7.862;2024-01-15T00:31:47;-1.30;99.90
12303;DHT22;6214;48.012;7.862;2024-01-15T00:34:14;-1.20;99.90
12303;DHT22;6214;48.012;7.862;2024-01-15T00:36:40;-1.20;99.90
12303;DHT22;6214;48.012;7.862;2024-01-15T00:39:07;-1.30;99.90
12303;DHT22;6214;48.012;7.862;2024-01-15T00:41:34;-1.30;99.90
12303;DHT22;6214;48.012;7.862;2024-01-15T00:44:01;-1.10;99.90
12303;DHT22;6214;48.012;7.862;2024-01-15T00:46:29;-1.30;99.90
12303;DHT22;6214;48.012;7.862;2024-01-15T00:48:56;-1.30;99.90
12303;DHT22;6214;48.012;7.862;2024-01-15T00:51:23;-1.40;99.90
12303;DHT22;6214;48.012;7.862;2024-01-15T00:53:49;-1.30;99.90
12303;DHT22;6214;48.012;7.862;2024-01-15T00:56:16;-1.20;99.90
12303;DHT22;6214;48.012;7.862;2024-01-15T00:58:43;-1.20;99.90
12303;DHT22;6214;48.012;7.862;2024-01-15T01:01:09;-1.10;99.90
12303;DHT22;6214;48.012;7.862;2024-01-15T01:03:36;-1.10;99.90
12303;DHT22;6214;48.012;7.862;2024-01-15T01:06:03;-0.90;99.90
12303;DHT22;6214;48.012;7.862;2024-01-15T01:08:31;-0.90;99.90
12303;DHT22;6214;48.012;7.862;2024-01-15T01:10:57;-1.00;99.90
12303;DHT22;6214;48.012;7.862;2024-01-15T01:13:24;-0.90;99.90
12303;DHT22;6214;48.012;7.862;2024-01-15T01:15:51;-0.90;99.90
12303;DHT22;6214;48.012;7.862;2024-01-15T01:18:18;-0.90;99.90
12303;DHT22;6214;48.012;7.862;2024-01-15T01:20:45;-1.00;99.90
12303;DHT22;6214;48.012;7.862;2024-01-15T01:23:12;-1.00;99.90
12303;DHT22;6214;48.012;7.862;2024-01-15T01:25:38;-0.90;99.90
12303;DHT22;6214;48.012;7.862;2024-01-15T01:28:05;-0.90;99.90
12303;DHT22;6214;48.012;7.862;2024-01-15T01:30:32;-0.90;99.90
12303;DHT22;6214;48.012;7.862;2024-01-15T01:32:59;-0.90;99.90
12303;DHT22;6214;48.012;7.862;2024-01-15T01:35:26;-0.90;99.90
12303;DHT22;6214;48.012;7.862;2024-01-15T01:37:52;-0.90;99.90
12303;DHT22;6214;48.012;7.862;2024-01-15T01:40:19;-0.90;99.90
12303;DHT22;6214;48.012;7.862;2024-01-15T01:42:47;-0.90;99.90
12303;DHT22;6214;48.012;7.862;2024-01-15T01:45:15;-0.90;99.90
12303;DHT22;6214;48.012;7.862;2024-01-15T01:47:42;-0.90;99.90
12303;DHT22;6214;48.012;7.862;2024-01-15T01:50:09;-1.00;99.90
12303;DHT22;6214;48.012;7.862;2024-01-15T01:52:36;-0.90;99.90
12303;DHT22;6214;48.012;7.862;2024-01-15T01:55:03;-0.90;99.90
12303;DHT22;6214;48.012;7.862;2024-01-15T01:57:31;-0.80;99.90
12303;DHT22;6214;48.012;7.862;2024-01-15T02:00:02;-0.90;99.90
12303;DHT22;6214;48.012;7.862;2024-01-15T02:02:31;-0.90;99.90
12303;DHT22;6214;48.012;7.862;2024-01-15T02:04:59;-1.00;99.90
12303;DHT22;6214;48.012;7.862;2024-01-15T02:07:26;-0.90;99.90
12303;DHT22;6214;48.012;7.862;2024-01-15T02:09:52;-1.10;99.90
12303;DHT22;6214;48.012;7.862;2024-01-15T02:12:19;-1.20;99.90
12303;DHT22;6214;48.012;7.862;2024-01-15T02:14:46;-1.40;99.90
12303;DHT22;6214;48.012;7.862;2024-01-15T02:17:13;-1.40;99.90
12303;DHT22;6214;48.012;7.862;2024-01-15T02:19:39;-1.50;99.90
12303;DHT22;6214;48.012;7.862;2024-01-15T02:22:07;-1.60;99.90
12303;DHT22;6214;48.012;7.862;2024-01-15T02:24:34;-1.60;99.90
12303;DHT22;6214;48.012;7.862;2024-01-15T02:27:01;-1.70;99.90
12303;DHT22;6214;48.012;7.862;2024-01-15T02:29:27;-1.60;99.90
12303;DHT22;6214;48.012;7.862;2024-01-15T02:31:55;-1.60;99.90
12303;DHT22;6214;48.012;7.862;2024-01-15T02:34:21;-1.70;99.90
12303;DHT22;6214;48.012;7.862;2024-01-15T02:36:48;-1.60;99.90
12303;DHT22;6214;48.012;7.862;2024-01-15T02:39:15;-0.90;99.90
12303;DHT22;6214;48.012;7.862;2024-01-15T02:41:42;-1.50;99.90
12303;DHT22;6214;48.012;7.862;2024-01-15T02:44:08;-1.40;99.90
12303;DHT22;6214;48.012;7.862;2024-01-15T02:46:35;-1.30;99.90
12303;DHT22;6214;48.012;7.862;2024-01-15T02:49:02;-1.30;99.90
12303;DHT22;6214;48.012;7.862;2024-01-15T02:51:29;-1.10;99.90
12303;DHT22;6214;48.012;7.862;2024-01-15T02:53:56;-1.00;99.90
12303;DHT22;6214;48.012;7.862;2024-01-15T02:56:22;-0.90;99.90
12303;DHT22;6214;48.012;7.862;2024-01-15T02:58:49;-0.90;99.90
12303;DHT22;6214;48.012;7.862;2024-01-15T03:01:18;-0.80;99.90
12303;DHT22;6214;48.012;7.862;2024-01-15T03:03:46;-0.80;99.90
12303;DHT22;6214;48.012;7.862;2024-01-15T03:06:13;-0.90;99.90
12303;DHT22;6214;48.012;7.862;2024-01-15T03:08:39;-1.00;99.90
12303;DHT22;6214;48.012;7.862;2024-01-15T03:11:06;-1.00;99.90
12303;DHT22;6214;48.012;7.862;2024-01-15T03:13:36;-1.20;99.90
12303;DHT22;6214;48.012;7.862;2024-01-15T03:16:04;-1.20;99.90
12303;DHT22;6214;48.012;7.862;2024-01-15T03:18:31;-1.10;99.90
12303;DHT22;6214;48.012;7.862;2024-01-15T03:20:59;-1.10;99.90
12303;DHT22;6214;48.012;7.862;2024-01-15T03:23:27;-1.10;99.90
12303;DHT22;6214;48.012;7.862;2024-01-15T03:25:54;-1.00;99.90
12303;DHT22;6214;48.012;7.862;2024-01-15T03:28:21;-1.00;99.90
12303;DHT22;6214;48.012;7.862;2024-01-15T03:30:48;-0.80;99.90
12303;DHT22;6214;48.012;7.862;2024-01-15T03:33:15;-0.90;99.90
12303;DHT22;6214;48.012;7.862;2024-01-15T03:35:42;-0.80;99.90
12303;DHT22;6214;48.012;7.862;2024-01-15T03:38:08;-0.70;99.90
12303;DHT22;6214;48.012;7.862;2024-01-15T03:40:35;-0.60;99.90
12303;DHT22;6214;48.012;7.862;2024-01-15T03:43:02;-0.60;99.90
12303;DHT22;6214;48.012;7.862;2024-01-15T03:45:29;-0.80;99.90
12303;DHT22;6214;48.012;7.862;2024-01-15T03:47:56;-0.80;99.90
12303;DHT22;6214;48.012;7.862;2024-01-15T03:50:22;-0.70;99.90
12303;DHT22;6214;48.012;7.862;2024-01-15T03:52:49;-0.70;99.90
12303;DHT22;6214;48.012;7.862;2024-01-15T03:55:16;-1.00;99.90
12303;DHT22;6214;48.012;7.862;2024-01-15T03:57:42;-1.20;99.90
12303;DHT22;6214;48.012;7.862;2024-01-15T04:00:10;-1.20;99.90
12303;DHT22;6214;48.012;7.862;2024-01-15T04:02:36;-1.10;99.90
12303;DHT22;6214;48.012;7.862;2024-01-15T04:05:03;-1.10;99.90
12303;DHT22;6214;48.012;7.862;2024-01-15T04:07:30;-1.00;99.90
12303;DHT22;6214;48.012;7.862;2024-01-15T04:09:57;-0.90;99.90
12303;DHT22;6214;48.012;7.862;2024-01-15T04:12:24;-0.90;99.90
12303;DHT22;6214;48.012;7.862;2024-01-15T04:14:50;-0.90;99.90
12303;DHT22;6214;48.012;7.862;2024-01-15T04:17:17;-1.00;99.90
12303;DHT22;6214;48.012;7.862;2024-01-15T04:19:44;-0.90;99.90
12303;DHT22;6214;48.012;7.862;2024-01-15T04:22:11;-1.10;99.90
12303;DHT22;6214;48.012;7.862;2024-01-15T04:24:38;-1.20;99.90
12303;DHT22;6214;48.012;7.862;2024-01-15T04:27:06;-1.10;99.90
12303;DHT22;6214;48.012;7.862;2024-01-15T04:29:33;-1.20;99.90
12303;DHT22;6214;48.012;7.862;2024-01-15T04:32:03;-1.20;99.90
12303;DHT22;6214;48.012;7.862;2024-01-15T04:34:30;-1.30;99.90
12303;DHT22;6214;48.012;7.862;2024-01-15T04:36:57;-1.40;99.90
12303;DHT22;6214;48.012;7.862;2024-01-15T04:39:24;-1.40;99.90
12303;DHT22;6214;48.012;7.862;2024-01-15T04:41:50;-1.40;99.90
12303;DHT22;6214;48.012;7.862;2024-01-15T04:44:17;-1.30;99.90
12303;DHT22;6214;48.012;7.862;2024-01-15T04:46:44;-1.40;99.90
12303;DHT22;6214;48.012;7.862;2024-01-15T04:49:11;-1.30;99.90
12303;DHT22;6214;48.012;7.862;2024-01-15T04:51:38;-1.20;99.90
12303;DHT22;6214;48.012;7.862;2024-01-15T04:54:05;-1.10;99.90
12303;DHT22;6214;48.012;7.862;2024-01-15T04:56:31;-1.10;99.90
12303;DHT22;6214;48.012;7.862;2024-01-15T04:58:58;-1.00;99.90
12303;DHT22;6214;48.012;7.862;2024-01-15T05:01:25;-1.10;99.90
12303;DHT22;6214;48.012;7.862;2024-01-15T05:03:52;-1.00;99.90
12303;DHT22;6214;48.012;7.862;2024-01-15T05:06:20;-0.80;99.90
12303;DHT22;6214;48.012;7.862;2024-01-15T05:08:47;-0.70;99.90
12303;DHT22;6214;48.012;7.862;2024-01-15T05:11:13;-0.80;99.90
12303;DHT22;6214;48.012;7.862;2024-01-15T05:13:40;-0.70;99.90
12303;DHT22;6214;48.012;7.862;2024-01-15T05:16:07;-0.70;99.90
12303;DHT22;6214;48.012;7.862;2024-01-15T05:18:34;-0.60;99.90
12303;DHT22;6214;48.012;7.862;2024-01-15T05:21:01;-0.60;99.90
12303;DHT22;6214;48.012;7.862;2024-01-15T05:23:28;-0.60;99.90
12303;DHT22;6214;48.012;7.862;2024-01-15T05:25:55;-0.60;99.90
12303;DHT22;6214;48.012;7.862;2024-01-15T05:28:21;-0.50;99.90
12303;DHT22;6214;48.012;7.862;2024-01-15T05:30:48;-0.40;99.90
12303;DHT22;6214;48.012;7.862;2024-01-15T05:33:17;-0.40;99.90
12303;DHT22;6214;48.012;7.862;2024-01-15T05:35:44;-0.40;99.90
12303;DHT22;6214;48.012;7.862;2024-01-15T05:38:10;-0.40;99.90
12303;DHT22;6214;48.012;7.862;2024-01-15T05:40:37;-0.50;99.90
12303;DHT22;6214;48.012;7.862;2024-01-15T05:43:04;-0.40;99.90
12303;DHT22;6214;48.012;7.862;2024-01-15T05:45:31;-0.50;99.90
12303;DHT22;6214;48.012;7.862;2024-01-15T05:47:57;-0.40;99.90
12303;DHT22;6214;48.012;7.862;2024-01-15T05:50:25;-0.30;99.90
12303;DHT22;6214;48.012;7.862;2024-01-15T05:52:51;-0.30;99.90
12303;DHT22;6214;48.012;7.862;2024-01-15T05:55:18;-0.30;99.90
12303;DHT22;6214;48.012;7.862;2024-01-15T05:57:45;-0.20;99.90
12303;DHT22;6214;48.012;7.862;2024-01-15T06:00:12;-0.30;99.90
12303;DHT22;6214;48.012;7.862;2024-01-15T06:02:40;-0.20;99.90
12303;DHT22;6214;48.012;7.862;2024-01-15T06:05:07;-0.10;99.90
12303;DHT22;6214;48.012;7.862;2024-01-15T06:07:34;-0.30;99.90
12303;DHT22;6214;48.012;7.862;2024-01-15T06:10:03;-0.20;99.90
12303;DHT22;6214;48.012;7.862;2024-01-15T06:12:31;-0.30;99.90
12303;DHT22;6214;48.012;7.862;2024-01-15T06:14:59;-0.20;99.90
12303;DHT22;6214;48.012;7.862;2024-01-15T06:17:26;-0.20;99.90
12303;DHT22;6214;48.012;7.862;2024-01-15T06:19:52;-0.20;99.90
12303;DHT22;6214;48.012;7.862;2024-01-15T06:22:19;-0.20;99.90
12303;DHT22;6214;48.012;7.862;2024-01-15T06:24:46;-0.10;99.90
12303;DHT22;6214;48.012;7.862;2024-01-15T06:27:13;-0.10;99.90
12303;DHT22;6214;48.012;7.862;2024-01-15T06:29:45;-0.10;99.90
12303;DHT22;6214;48.012;7.862;2024-01-15T06:32:16;-0.10;99.90
12303;DHT22;6214;48.012;7.862;2024-01-15T06:34:43;-0.10;99.90
12303;DHT22;6214;48.012;7.862;2024-01-15T06:37:10;-0.10;99.90
12303;DHT22;6214;48.012;7.862;2024-01-15T06:39:37;-0.10;99.90
12303;DHT22;6214;48.012;7.862;2024-01-15T06:42:04;-0.10;99.90
12303;DHT22;6214;48.012;7.862;2024-01-15T06:44:30;0.10;99.90
12303;DHT22;6214;48.012;7.862;2024-01-15T06:46:57;0.00;99.90
12303;DHT22;6214;48.012;7.862;2024-01-15T06:49:29;0.00;99.90
12303;DHT22;6214;48.012;7.862;2024-01-15T06:51:56;0.10;99.90
12303;DHT22;6214;48.012;7.862;2024-01-15T06:54:23;0.00;99.90
12303;DHT22;6214;48.012;7.862;2024-01-15T06:56:50;0.00;99.90
12303;DHT22;6214;48.012;7.862;2024-01-15T06:59:17;0.00;99.90
12303;DHT22;6214;48.012;7.862;2024-01-15T07:01:46;0.00;99.90
12303;DHT22;6214;48.012;7.862;2024-01-15T07:04:13;-0.10;99.90
12303;DHT22;6214;48.012;7.862;2024-01-15T07:06:40;0.00;99.90
12303;DHT22;6214;48.012;7.862;2024-01-15T07:09:07;0.10;99.90
12303;DHT22;6214;48.012;7.862;2024-01-15T07:11:34;0.10;99.90
12303;DHT22;6214;48.012;7.862;2024-01-15T07:14:01;0.10;99.90
12303;DHT22;6214;48.012;7.862;2024-01-15T07:16:28;0.10;99.90
12303;DHT22;6214;48.012;7.862;2024-01-15T07:19:04;0.20;99.90
12303;DHT22;6214;48.012;7.862;2024-01-15T07:21:31;0.20;99.90
12303;DHT22;6214;48.012;7.862;2024-01-15T07:23:58;0.20;99.90
12303;DHT22;6214;48.012;7.862;2024-01-15T07:26:24;0.30;99.90
12303;DHT22;6214;48.012;7.862;2024-01-15T07:28:52;0.40;99.90
12303;DHT22;6214;48.012;7.862;2024-01-15T07:31:19;0.40;99.90
12303;DHT22;6214;48.012;7.862;2024-01-15T07:33:46;0.50;99.90
12303;DHT22;6214;48.012;7.862;2024-01-15T07:36:13;0.50;99.90
12303;DHT22;6214;48.012;7.862;2024-01-15T07:38:40;0.50;99.90
12303;DHT22;6214;48.012;7.862;2024-01-15T07:41:07;0.50;99.90
12303;DHT22;6214;48.012;7.862;2024-01-15T07:43:34;0.50;99.90
12303;DHT22;6214;48.012;7.862;2024-01-15T07:46:01;0.50;99.90
12303;DHT22;6214;48.012;7.862;2024-01-15T07:48:29;0.50;99.90
12303;DHT22;6214;48.012;7.862;2024-01-15T07:50:56;0.50;99.90
12303;DHT22;6214;48.012;7.862;2024-01-15T07:53:22;0.60;99.90
12303;DHT22;6214;48.012;7.862;2024-01-15T07:55:49;0.70;99.90
12303;DHT22;6214;48.012;7.862;2024-01-15T07:58:16;0.80;99.90
12303;DHT22;6214;48.012;7.862;2024-01-15T08:00:43;0.70;99.90
12303;DHT22;6214;48.012;7.862;2024-01-15T08:03:11;0.90;99.90
12303;DHT22;6214;48.012;7.862;2024-01-15T08:05:39;0.90;99.90
12303;DHT22;6214;48.012;7.862;2024-01-15T08:08:05;0.90;99.90
12303;DHT22;6214;48.012;7.862;2024-01-15T08:10:32;0.90;99.90
12303;DHT22;6214;48.012;7.862;2024-01-15T08:12:59;1.10;99.90
12303;DHT22;6214;48.012;7.862;2024-01-15T08:15:26;1.10;99.90
12303;DHT22;6214;48.012;7.862;2024-01-15T08:17:57;1.10;99.90
12303;DHT22;6214;48.012;7.862;2024-01-15T08:20:24;1.20;99.90
12303;DHT22;6214;48.012;7.862;2024-01-15T08:22:51;1.20;99.90
12303;DHT22;6214;48.012;7.862;2024-01-15T08:25:18;1.20;99.90
12303;DHT22;6214;48.012;7.862;2024-01-15T08:27:45;1.20;99.90
12303;DHT22;6214;48.012;7.862;2024-01-15T08:30:12;1.20;99.90
12303;DHT22;6214;48.012;7.862;2024-01-15T08:32:39;1.20;99.90
12303;DHT22;6214;48.012;7.862;2024-01-15T08:35:09;1.20;99.90
12303;DHT22;6214;48.012;7.862;2024-01-15T08:37:37;1.30;99.90
12303;DHT22;6214;48.012;7.862;2024-01-15T08:40:04;1.30;99.90
12303;DHT22;6214;48.012;7.862;2024-01-15T08:42:31;1.40;99.90
12303;DHT22;6214;48.012;7.862;2024-01-15T08:44:58;1.50;99.90
12303;DHT22;6214;48.012;7.862;2024-01-15T08:47:25;1.60;99.90
12303;DHT22;6214;48.012;7.862;2024-01-15T08:49:52;1.70;99.90
12303;DHT22;6214;48.012;7.862;2024-01-15T08:52:19;1.60;99.90
12303;DHT22;6214;48.012;7.862;2024-01-15T08:54:46;1.70;99.90
12303;DHT22;6214;48.012;7.862;2024-01-15T08:57:13;1.70;99.90
12303;DHT22;6214;48.012;7.862;2024-01-15T08:59:40;1.70;99.90
12303;DHT22;6214;48.012;7.862;2024-01-15T09:02:08;1.70;99.90
12303;DHT22;6214;48.012;7.862;2024-01-15T09:04:34;1.70;99.90
12303;DHT22;6214;48.012;7.862;2024-01-15T09:07:01;1.70;99.90
12303;DHT22;6214;48.012;7.862;2024-01-15T09:09:28;1.60;99.90
12303;DHT22;6214;48.012;7.862;2024-01-15T09:11:55;1.70;99.90
12303;DHT22;6214;48.012;7.862;2024-01-15T09:14:22;1.70;99.90
12303;DHT22;6214;48.012;7.862;2024-01-15T09:17:04;1.80;99.90
12303;DHT22;6214;48.012;7.862;2024-01-15T09:19:31;1.90;99.90
12303;DHT22;6214;48.012;7.862;2024-01-15T09:21:58;1.90;99.90
12303;DHT22;6214;48.012;7.862;2024-01-15T09:24:25;1.80;99.90
12303;DHT22;6214;48.012;7.862;2024-01-15T09:26:54;1.80;99.90
12303;DHT22;6214;48.012;7.862;2024-01-15T09:29:21;1.90;99.90
12303;DHT22;6214;48.012;7.862;2024-01-15T09:31:50;2.00;99.90
12303;DHT22;6214;48.012;7.862;2024-01-15T09:34:17;2.20;99.90
12303;DHT22;6214;48.012;7.862;2024-01-15T09:36:45;2.30;99.90
12303;DHT22;6214;48.012;7.862;2024-01-15T09:39:12;2.50;99.90
12303;DHT22;6214;48.012;7.862;2024-01-15T09:41:39;2.60;99.90
12303;DHT22;6214;48.012;7.862;2024-01-15T09:44:06;2.80;99.90
12303;DHT22;6214;48.012;7.862;2024-01-15T09:46:36;2.80;99.90
12303;DHT22;6214;48.012;7.862;2024-01-15T09:49:03;2.80;99.90
12303;DHT22;6214;48.012;7.862;2024-01-15T09:51:32;2.80;99.90
12303;DHT22;6214;48.012;7.862;2024-01-15T09:53:59;3.00;99.90
12303;DHT22;6214;48.012;7.862;2024-01-15T09:56:26;3.10;99.90
12303;DHT22;6214;48.012;7.862;2024-01-15T09:58:53;3.10;99.90
12303;DHT22;6214;48.012;7.862;2024-01-15T10:01:20;3.10;99.90
12303;DHT22;6214;48.012;7.862;2024-01-15T10:03:48;3.10;99.90
12303;DHT22;6214;48.012;7.862;2024-01-15T10:06:16;3.20;99.90
12303;DHT22;6214;48.012;7.862;2024-01-15T10:08:52;3.00;99.90
12303;DHT22;6214;48.012;7.862;2024-01-15T10:11:19;3.30;99.90
12303;DHT22;6214;48.012;7.862;2024-01-15T10:13:49;3.20;99.90
12303;DHT22;6214;48.012;7.862;2024-01-15T10:16:23;3.20;99.90
12303;DHT22;6214;48.012;7.862;2024-01-15T10:18:50;3.10;99.90
12303;DHT22;6214;48.012;7.862;2024-01-15T10:21:17;3.10;99.90
12303;DHT22;6214;48.012;7.862;2024-01-15T10:23:44;2.90;99.90
12303;DHT22;6214;48.012;7.862;2024-01-15T10:26:11;3.00;99.90
12303;DHT22;6214;48.012;7.862;2024-01-15T10:28:45;3.10;99.90
12303;DHT22;6214;48.012;7.862;2024-01-15T10:31:12;3.10;99.90
12303;DHT22;6214;48.012;7.862;2024-01-15T10:33:39;2.80;99.90
12303;DHT22;6214;48.012;7.862;2024-01-15T10:36:09;2.90;99.90
12303;DHT22;6214;48.012;7.862;2024-01-15T10:38:37;2.80;99.90
12303;DHT22;6214;48.012;7.862;2024-01-15T10:41:04;2.60;99.90
12303;DHT22;6214;48.012;7.862;2024-01-15T10:43:31;2.50;99.90
12303;DHT22;6214;48.012;7.862;2024-01-15T10:45:58;2.50;99.90
12303;DHT22;6214;48.012;7.862;2024-01-15T10:48:25;2.40;99.90
12303;DHT22;6214;48.012;7.862;2024-01-15T10:50:56;2.30;99.90
12303;DHT22;6214;48.012;7.862;2024-01-15T10:53:23;2.40;99.90
12303;DHT22;6214;48.012;7.862;2024-01-15T10:55:52;2.40;99.90
12303;DHT22;6214;48.012;7.862;2024-01-15T10:58:20;2.40;99.90
12303;DHT22;6214;48.012;7.862;2024-01-15T11:00:47;2.40;99.90
12303;DHT22;6214;48.012;7.862;2024-01-15T11:03:14;2.30;99.90
12303;DHT22;6214;48.012;7.862;2024-01-15T11:05:43;2.40;99.90
12303;DHT22;6214;48.012;7.862;2024-01-15T11:08:11;2.50;99.90
12303;DHT22;6214;48.012;7.862;2024-01-15T11:10:43;2.50;99.90
12303;DHT22;6214;48.012;7.862;2024-01-15T11:16:08;2.50;99.90
12303;DHT22;6214;48.012;7.862;2024-01-15T11:21:25;2.40;99.90
12303;DHT22;6214;48.012;7.862;2024-01-15T11:24:00;2.40;99.90
12303;DHT22;6214;48.012;7.862;2024-01-15T11:29:00;2.50;99.90
12303;DHT22;6214;48.012;7.862;2024-01-15T11:32:11;2.50;99.90
12303;DHT22;6214;48.012;7.862;2024-01-15T11:34:18;2.50;99.90
12303;DHT22;6214;48.012;7.862;2024-01-15T11:41:57;2.50;99.90
12303;DHT22;6214;48.012;7.862;2024-01-15T11:44:25;2.50;99.90
12303;DHT22;6214;48.012;7.862;2024-01-15T11:52:17;2.70;99.90
12303;DHT22;6214;48.012;7.862;2024-01-15T11:55:01;2.60;99.90
12303;DHT22;6214;48.012;7.862;2024-01-15T11:57:45;2.50;99.90
12303;DHT22;6214;48.012;7.862;2024-01-15T12:00:13;2.60;99.90
12303;DHT22;6214;48.012;7.862;2024-01-15T12:02:41;2.60;99.90
12303;DHT22;6214;48.012;7.862;2024-01-15T12:05:09;2.50;99.90
12303;DHT22;6214;48.012;7.862;2024-01-15T12:07:36;2.60;99.90
12303;DHT22;6214;48.012;7.862;2024-01-15T12:10:08;2.50;99.90
12303;DHT22;6214;48.012;7.862;2024-01-15T12:12:52;2.60;99.90
12303;DHT22;6214;48.012;7.862;2024-01-15T12:15:20;2.70;99.90
12303;DHT22;6214;48.012;7.862;2024-01-15T12:17:47;2.80;99.90
12303;DHT22;6214;48.012;7.862;2024-01-15T12:20:14;2.80;99.90
12303;DHT22;6214;48.012;7.862;2024-01-15T12:22:42;3.00;99.90
12303;DHT22;6214;48.012;7.862;2024-01-15T12:25:26;2.80;99.90
12303;DHT22;6214;48.012;7.862;2024-01-15T12:27:54;2.80;99.90
12303;DHT22;6214;48.012;7.862;2024-01-15T12:30:21;2.80;99.90
12303;DHT22;6214;48.012;7.862;2024-01-15T12:32:48;2.80;99.90
12303;DHT22;6214;48.012;7.862;2024-01-15T12:35:15;2.80;99.90
12303;DHT22;6214;48.012;7.862;2024-01-15T12:37:43;2.80;99.90
12303;DHT22;6214;48.012;7.862;2024-01-15T12:40:10;2.80;99.90
12303;DHT22;6214;48.012;7.862;2024-01-15T12:42:39;2.80;99.90
12303;DHT22;6214;48.012;7.862;2024-01-15T12:45:06;2.70;99.90
12303;DHT22;6214;48.012;7.862;2024-01-15T12:47:35;2.70;99.90
12303;DHT22;6214;48.012;7.862;2024-01-15T12:50:06;2.80;99.90
12303;DHT22;6214;48.012;7.862;2024-01-15T12:52:44;2.90;99.90
12303;DHT22;6214;48.012;7.862;2024-01-15T12:55:11;2.80;99.90
12303;DHT22;6214;48.012;7.862;2024-01-15T12:57:38;2.90;99.90
12303;DHT22;6214;48.012;7.862;2024-01-15T13:00:06;2.80;99.90
12303;DHT22;6214;48.012;7.862;2024-01-15T13:02:41;2.80;99.90
12303;DHT22;6214;48.012;7.862;2024-01-15T13:05:09;2.80;99.90
12303;DHT22;6214;48.012;7.862;2024-01-15T13:07:41;2.90;99.90
12303;DHT22;6214;48.012;7.862;2024-01-15T13:10:08;2.80;99.90
12303;DHT22;6214;48.012;7.862;2024-01-15T13:12:37;2.80;99.90
12303;DHT22;6214;48.012;7.862;2024-01-15T13:15:05;2.80;99.90
12303;DHT22;6214;48.012;7.862;2024-01-15T13:17:31;2.90;99.90
12303;DHT22;6214;48.012;7.862;2024-01-15T13:19:58;2.90;99.90
12303;DHT22;6214;48.012;7.862;2024-01-15T13:22:26;3.00;99.90
12303;DHT22;6214;48.012;7.862;2024-01-15T13:24:58;2.90;99.90
12303;DHT22;6214;48.012;7.862;2024-01-15T13:27:26;2.90;99.90
12303;DHT22;6214;48.012;7.862;2024-01-15T13:29:52;2.90;99.90
12303;DHT22;6214;48.012;7.862;2024-01-15T13:32:24;2.80;99.90
12303;DHT22;6214;48.012;7.862;2024-01-15T13:34:53;2.80;99.90
12303;DHT22;6214;48.012;7.862;2024-01-15T13:37:20;2.70;99.90
12303;DHT22;6214;48.012;7.862;2024-01-15T13:39:47;2.60;99.90
12303;DHT22;6214;48.012;7.862;2024-01-15T13:42:14;2.50;99.90
12303;DHT22;6214;48.012;7.862;2024-01-15T13:44:42;2.60;99.90
12303;DHT22;6214;48.012;7.862;2024-01-15T13:47:08;2.50;99.90
12303;DHT22;6214;48.012;7.862;2024-01-15T13:49:35;2.50;99.90
12303;DHT22;6214;48.012;7.862;2024-01-15T13:52:03;2.50;99.90
12303;DHT22;6214;48.012;7.862;2024-01-15T13:54:30;2.40;99.90
12303;DHT22;6214;48.012;7.862;2024-01-15T13:57:15;2.50;99.90
12303;DHT22;6214;48.012;7.862;2024-01-15T13:59:42;2.50;99.90
12303;DHT22;6214;48.012;7.862;2024-01-15T14:02:09;2.50;99.90
12303;DHT22;6214;48.012;7.862;2024-01-15T14:04:40;2.40;99.90
12303;DHT22;6214;48.012;7.862;2024-01-15T14:07:08;2.40;99.90
12303;DHT22;6214;48.012;7.862;2024-01-15T14:09:34;2.40;99.90
12303;DHT22;6214;48.012;7.862;2024-01-15T14:12:01;2.40;99.90
12303;DHT22;6214;48.012;7.862;2024-01-15T14:14:29;2.30;99.90
12303;DHT22;6214;48.012;7.862;2024-01-15T14:16:55;2.30;99.90
12303;DHT22;6214;48.012;7.862;2024-01-15T14:19:23;2.30;99.90
12303;DHT22;6214;48.012;7.862;2024-01-15T14:21:50;2.30;99.90
12303;DHT22;6214;48.012;7.862;2024-01-15T14:24:17;2.30;99.90
12303;DHT22;6214;48.012;7.862;2024-01-15T14:26:44;2.20;99.90
12303;DHT22;6214;48.012;7.862;2024-01-15T14:29:12;2.30;99.90
12303;DHT22;6214;48.012;7.862;2024-01-15T14:31:39;2.30;99.90
12303;DHT22;6214;48.012;7.862;2024-01-15T14:34:06;2.30;99.90
12303;DHT22;6214;48.012;7.862;2024-01-15T14:36:34;2.20;99.90
12303;DHT22;6214;48.012;7.862;2024-01-15T14:39:01;2.10;99.90
12303;DHT22;6214;48.012;7.862;2024-01-15T14:41:29;2.10;99.90
12303;DHT22;6214;48.012;7.862;2024-01-15T14:43:56;2.10;99.90
12303;DHT22;6214;48.012;7.862;2024-01-15T14:46:23;2.10;99.90
12303;DHT22;6214;48.012;7.862;2024-01-15T14:48:50;2.00;99.90
12303;DHT22;6214;48.012;7.862;2024-01-15T14:51:17;2.10;99.90
12303;DHT22;6214;48.012;7.862;2024-01-15T14:53:44;2.10;99.90
12303;DHT22;6214;48.012;7.862;2024-01-15T14:56:11;2.10;99.90
12303;DHT22;6214;48.012;7.862;2024-01-15T14:58:42;2.20;99.90
12303;DHT22;6214;48.012;7.862;2024-01-15T15:01:09;2.10;99.90
12303;DHT22;6214;48.012;7.862;2024-01-15T15:03:36;2.20;99.90
12303;DHT22;6214;48.012;7.862;2024-01-15T15:06:03;2.10;99.90
12303;DHT22;6214;48.012;7.862;2024-01-15T15:08:30;2.00;99.90
12303;DHT22;6214;48.012;7.862;2024-01-15T15:10:57;2.00;99.90
12303;DHT22;6214;48.012;7.862;2024-01-15T15:13:24;2.10;99.90
12303;DHT22;6214;48.012;7.862;2024-01-15T15:16:10;2.10;99.90
12303;DHT22;6214;48.012;7.862;2024-01-15T15:18:37;2.10;99.90
12303;DHT22;6214;48.012;7.862;2024-01-15T15:21:04;2.00;99.90
12303;DHT22;6214;48.012;7.862;2024-01-15T15:23:31;2.00;99.90
12303;DHT22;6214;48.012;7.862;2024-01-15T15:25:57;2.00;99.90
12303;DHT22;6214;48.012;7.862;2024-01-15T15:28:24;1.90;99.90
12303;DHT22;6214;48.012;7.862;2024-01-15T15:30:51;1.90;99.90
12303;DHT22;6214;48.012;7.862;2024-01-15T15:33:18;1.90;99.90
12303;DHT22;6214;48.012;7.862;2024-01-15T15:35:45;1.90;99.90
12303;DHT22;6214;48.012;7.862;2024-01-15T15:38:12;1.80;99.90
12303;DHT22;6214;48.012;7.862;2024-01-15T15:40:39;1.90;99.90
12303;DHT22;6214;48.012;7.862;2024-01-15T15:43:05;1.80;99.90
12303;DHT22;6214;48.012;7.862;2024-01-15T15:45:32;1.80;99.90
12303;DHT22;6214;48.012;7.862;2024-01-15T15:47:59;1.80;99.90
12303;DHT22;6214;48.012;7.862;2024-01-15T15:50:26;1.80;99.90
12303;DHT22;6214;48.012;7.862;2024-01-15T15:52:55;1.80;99.90
12303;DHT22;6214;48.012;7.862;2024-01-15T15:55:22;1.90;99.90
12303;DHT22;6214;48.012;7.862;2024-01-15T15:57:50;1.80;99.90
12303;DHT22;6214;48.012;7.862;2024-01-15T16:00:17;1.80;99.90
12303;DHT22;6214;48.012;7.862;2024-01-15T16:02:44;1.80;99.90
12303;DHT22;6214;48.012;7.862;2024-01-15T16:05:10;1.70;99.90
12303;DHT22;6214;48.012;7.862;2024-01-15T16:07:37;1.70;99.90
12303;DHT22;6214;48.012;7.862;2024-01-15T16:10:05;1.70;99.90
12303;DHT22;6214;48.012;7.862;2024-01-15T16:12:32;1.70;99.90
12303;DHT22;6214;48.012;7.862;2024-01-15T16:15:01;1.60;99.90
12303;DHT22;6214;48.012;7.862;2024-01-15T16:17:28;1.60;99.90